Uzhhorod, Ukraine
Current Conditions -  °F | °C
As of 4:00 PM on Thursday 27 Nov 2014 (Local Time) from UKLU Reporting Station
Haze Haze  
Wind Chill: 30°   Ceiling: 700
Heat Index: 30°   Visibility: 2.6mi
Dew Point: 30°   Wind: 2mph
Humidity: 100%   Direction: 160°SSE
Pressure: 30.18"   Gusts: NA
Location:  48.62°N, 22.3°E
Report Text: UKLU 271300Z 16001MPS 4200 BR OVC007 M01/M01 Q1022 10090070 NOSIG
Loading
Personal Weather Stations






























Interactive Weather Map New forecast layout! Learn more

10-Day Weather Forecast

Advertisements
Track Severe Weather on mobile